Time;durP1;ratioP1;P1;durP2;ratioP2;P2;SDS_P1;SDS_P2;PMS_P1;PMS_P2;Temp;Humidity;BMP_temperature;BMP_pressure;BME280_temperature;BME280_humidity;BME280_pressure;Samples;Min_cycle;Max_cycle;Signal;HPM_P1;HPM_P2
2024/02/26 00:00:21;;;;;;;8.35;5.28;;;;;;;1.64;100.00;94155.88;2097404;28;20049;-62
2024/02/26 00:01:22;;;;;;;8.13;5.72;;;;;;;1.63;100.00;94157.63;2098439;28;20473;-62
2024/02/26 00:02:23;;;;;;;10.32;5.57;;;;;;;1.69;100.00;94156.53;2097670;28;20059;-62
2024/02/26 00:03:24;;;;;;;8.15;5.20;;;;;;;1.65;100.00;94153.25;2098074;28;20059;-62
2024/02/26 00:04:25;;;;;;;9.25;5.45;;;;;;;1.59;100.00;94156.06;2098217;28;20507;-62
2024/02/26 00:05:26;;;;;;;8.35;5.55;;;;;;;1.52;100.00;94152.09;2098465;28;20043;-62
2024/02/26 00:06:28;;;;;;;8.25;5.57;;;;;;;1.62;100.00;94147.44;2097867;28;20056;-62
2024/02/26 00:07:29;;;;;;;8.55;5.40;;;;;;;1.62;100.00;94150.81;2098073;28;20049;-62
2024/02/26 00:08:31;;;;;;;7.60;5.05;;;;;;;1.59;100.00;94148.38;2098482;28;20051;-62
2024/02/26 00:09:35;;;;;;;10.15;5.30;;;;;;;1.63;100.00;94149.06;2098346;28;20041;-62
2024/02/26 00:10:36;;;;;;;7.75;5.22;;;;;;;1.69;100.00;94148.84;2097596;28;20048;-62
2024/02/26 00:11:37;;;;;;;9.98;5.03;;;;;;;1.71;100.00;94152.16;2098264;28;20037;-62
2024/02/26 00:12:39;;;;;;;8.02;4.82;;;;;;;1.70;99.77;94147.94;2098396;28;20503;-62
2024/02/26 00:13:40;;;;;;;7.97;4.88;;;;;;;1.67;99.82;94140.38;2098139;28;20531;-62
2024/02/26 00:14:41;;;;;;;6.65;4.57;;;;;;;1.67;99.87;94151.44;2097915;28;20052;-62
2024/02/26 00:15:42;;;;;;;10.07;4.68;;;;;;;1.65;99.87;94147.28;2097596;28;20052;-62
2024/02/26 00:16:45;;;;;;;7.65;4.15;;;;;;;1.67;99.76;94148.06;2098190;28;20040;-62
2024/02/26 00:17:46;;;;;;;8.98;5.38;;;;;;;1.69;99.55;94151.41;2098203;28;20036;-62
2024/02/26 00:18:47;;;;;;;9.25;4.75;;;;;;;1.71;99.33;94145.31;2098443;28;20040;-62
2024/02/26 00:19:48;;;;;;;7.43;4.88;;;;;;;1.68;99.34;94145.44;2098460;28;20032;-62
2024/02/26 00:20:49;;;;;;;8.38;4.90;;;;;;;1.66;99.35;94142.13;2098061;28;20044;-62
2024/02/26 00:21:50;;;;;;;8.48;5.40;;;;;;;1.64;99.54;94137.97;2098339;28;20040;-62
2024/02/26 00:22:51;;;;;;;7.63;4.80;;;;;;;1.62;99.32;94137.19;2097699;28;20495;-62
2024/02/26 00:23:53;;;;;;;9.40;5.47;;;;;;;1.58;99.53;94140.75;2098043;28;20473;-62
2024/02/26 00:24:54;;;;;;;8.95;4.95;;;;;;;1.52;99.93;94136.72;2097973;28;20040;-62
2024/02/26 00:25:55;;;;;;;7.28;4.07;;;;;;;1.51;100.00;94138.47;2097388;28;20045;-62
2024/02/26 00:26:56;;;;;;;9.05;5.38;;;;;;;1.50;100.00;94141.09;2098400;28;20381;-62
2024/02/26 00:27:57;;;;;;;7.63;4.68;;;;;;;1.52;100.00;94137.59;2097879;28;20059;-62
2024/02/26 00:28:58;;;;;;;7.53;4.88;;;;;;;1.50;99.98;94136.00;2098320;28;20040;-61
2024/02/26 00:29:59;;;;;;;6.95;4.65;;;;;;;1.46;99.86;94129.31;2098577;28;20036;-63
2024/02/26 00:31:00;;;;;;;9.77;4.70;;;;;;;1.40;100.00;94142.38;2097786;28;20512;-62
2024/02/26 00:32:02;;;;;;;8.63;5.82;;;;;;;1.41;100.00;94134.63;2098252;28;20033;-62
2024/02/26 00:33:03;;;;;;;10.65;4.93;;;;;;;1.38;100.00;94142.44;2098194;28;20032;-62
2024/02/26 00:34:04;;;;;;;10.00;5.28;;;;;;;1.38;100.00;94144.16;2097712;28;20044;-62
2024/02/26 00:35:05;;;;;;;8.52;5.15;;;;;;;1.34;100.00;94138.34;2097356;28;20048;-62
2024/02/26 00:36:06;;;;;;;8.75;5.22;;;;;;;1.31;100.00;94141.84;2089500;28;20045;-62
2024/02/26 00:37:08;;;;;;;10.38;5.65;;;;;;;1.30;100.00;94136.78;2089224;28;20071;-62
2024/02/26 00:38:09;;;;;;;8.18;4.82;;;;;;;1.27;100.00;94127.53;2097970;28;20107;-62
2024/02/26 00:39:11;;;;;;;9.90;5.30;;;;;;;1.26;100.00;94140.38;2098008;28;20048;-62
2024/02/26 00:40:12;;;;;;;9.05;4.82;;;;;;;1.26;100.00;94130.97;2098316;28;20032;-62
2024/02/26 00:41:13;;;;;;;8.88;4.78;;;;;;;1.24;100.00;94134.50;2096860;28;20059;-62
2024/02/26 00:42:14;;;;;;;9.48;5.03;;;;;;;1.23;100.00;94128.56;2097352;28;20055;-62
2024/02/26 00:43:15;;;;;;;9.57;5.68;;;;;;;1.23;100.00;94133.66;2098195;28;20056;-62
2024/02/26 00:44:17;;;;;;;8.57;5.25;;;;;;;1.22;100.00;94136.28;2100095;28;20031;-62
2024/02/26 00:45:18;;;;;;;8.95;5.30;;;;;;;1.21;100.00;94139.75;2099729;28;20037;-62
2024/02/26 00:46:19;;;;;;;7.25;5.15;;;;;;;1.21;100.00;94134.63;2098889;28;20408;-62
2024/02/26 00:47:20;;;;;;;8.98;5.82;;;;;;;1.19;100.00;94136.41;2099156;28;20052;-62
2024/02/26 00:48:21;;;;;;;11.65;5.55;;;;;;;1.16;100.00;94142.47;2099719;28;20036;-62
2024/02/26 00:49:22;;;;;;;10.30;6.50;;;;;;;1.16;100.00;94144.22;2099800;28;20385;-62
2024/02/26 00:50:23;;;;;;;9.48;5.35;;;;;;;1.18;100.00;94143.25;2099453;28;20049;-62
2024/02/26 00:51:24;;;;;;;10.23;6.07;;;;;;;1.19;100.00;94146.63;2099497;28;20055;-62
2024/02/26 00:52:25;;;;;;;8.63;5.68;;;;;;;1.18;100.00;94139.88;2098926;28;20416;-62
2024/02/26 00:53:28;;;;;;;9.52;5.82;;;;;;;1.16;100.00;94145.03;2099061;28;20051;-62
2024/02/26 00:54:30;;;;;;;9.85;5.97;;;;;;;1.22;100.00;94144.78;2099819;28;20048;-62
2024/02/26 00:55:31;;;;;;;8.25;5.43;;;;;;;1.20;100.00;94145.72;2099641;28;20396;-62
2024/02/26 00:56:32;;;;;;;8.65;5.40;;;;;;;1.16;100.00;94141.66;2099421;28;20415;-62
2024/02/26 00:57:33;;;;;;;9.45;5.45;;;;;;;1.20;100.00;94143.16;2099836;28;20033;-62
2024/02/26 00:58:34;;;;;;;9.30;5.80;;;;;;;1.19;100.00;94134.69;2099769;28;20040;-62
2024/02/26 00:59:35;;;;;;;8.20;5.90;;;;;;;1.23;100.00;94143.03;2099221;28;20507;-62
2024/02/26 01:00:37;;;;;;;8.45;5.75;;;;;;;1.26;100.00;94137.84;2099806;28;20044;-62
2024/02/26 01:01:38;;;;;;;9.45;5.90;;;;;;;1.28;100.00;94133.47;2099600;28;20055;-62
2024/02/26 01:02:39;;;;;;;8.85;4.90;;;;;;;1.27;100.00;94134.38;2099229;28;20075;-62
2024/02/26 01:03:40;;;;;;;9.00;6.10;;;;;;;1.22;100.00;94129.44;2099258;28;20473;-62
2024/02/26 01:04:41;;;;;;;9.00;5.63;;;;;;;1.23;100.00;94122.59;2099714;28;20040;-62
2024/02/26 01:05:42;;;;;;;10.40;5.80;;;;;;;1.22;100.00;94126.88;2099993;28;20052;-62
2024/02/26 01:06:43;;;;;;;8.70;5.72;;;;;;;1.23;100.00;94117.47;2099165;28;20044;-63
2024/02/26 01:07:45;;;;;;;9.55;5.57;;;;;;;1.28;100.00;94120.69;2099533;28;20053;-63
2024/02/26 01:08:46;;;;;;;10.07;5.75;;;;;;;1.32;100.00;94117.13;2099870;28;20046;-62
2024/02/26 01:09:47;;;;;;;8.70;5.80;;;;;;;1.30;100.00;94113.78;2099674;28;20036;-62
2024/02/26 01:10:49;;;;;;;8.77;5.28;;;;;;;1.30;99.95;94111.22;2099243;28;20053;-63
2024/02/26 01:11:50;;;;;;;9.77;6.28;;;;;;;1.30;100.00;94113.78;2099669;28;20029;-62
2024/02/26 01:12:51;;;;;;;9.32;5.18;;;;;;;1.26;99.78;94114.81;2099194;28;20055;-63
2024/02/26 01:13:56;;;;;;;8.32;5.00;;;;;;;1.25;99.66;94113.97;2099720;28;20047;-62
2024/02/26 01:14:57;;;;;;;12.05;6.03;;;;;;;1.32;99.68;94117.13;2099553;28;20036;-62
2024/02/26 01:15:58;;;;;;;10.00;5.45;;;;;;;1.31;99.75;94115.47;2100057;28;20037;-63
2024/02/26 01:16:59;;;;;;;9.18;5.93;;;;;;;1.28;99.69;94118.13;2092590;28;20033;-63
2024/02/26 01:18:00;;;;;;;9.10;5.38;;;;;;;1.26;99.79;94125.03;2091838;28;20049;-75
2024/02/26 01:19:01;;;;;;;8.40;5.53;;;;;;;1.26;99.77;94119.94;2101306;28;20045;-64
2024/02/26 01:20:03;;;;;;;11.77;6.10;;;;;;;1.24;99.71;94122.53;2101539;28;20041;-63
2024/02/26 01:21:08;;;;;;;9.73;5.20;;;;;;;1.23;99.68;94117.47;2101006;28;20049;-63
2024/02/26 01:22:09;;;;;;;9.88;6.00;;;;;;;1.25;99.67;94123.38;2100676;28;20044;-72
2024/02/26 01:23:10;;;;;;;11.00;5.72;;;;;;;1.23;99.78;94117.47;2100826;28;20051;-62
2024/02/26 01:24:11;;;;;;;11.10;6.28;;;;;;;1.22;100.00;94126.06;2100783;28;20071;-64
2024/02/26 01:25:13;;;;;;;10.57;5.70;;;;;;;1.21;100.00;94130.34;2100549;28;20059;-63
2024/02/26 01:26:14;;;;;;;9.35;6.07;;;;;;;1.23;100.00;94120.88;2100287;28;20052;-62
2024/02/26 01:27:15;;;;;;;10.65;6.65;;;;;;;1.25;100.00;94128.47;2100244;28;20048;-63
2024/02/26 01:28:16;;;;;;;8.65;5.88;;;;;;;1.22;100.00;94131.16;2098907;28;20056;-62
2024/02/26 01:29:17;;;;;;;10.48;5.70;;;;;;;1.24;99.79;94135.31;2099735;28;20641;-62
2024/02/26 01:30:19;;;;;;;8.77;5.75;;;;;;;1.24;99.71;94134.50;2099621;28;20032;-62
2024/02/26 01:31:20;;;;;;;10.05;5.93;;;;;;;1.21;99.66;94132.06;2099403;28;20044;-62
2024/02/26 01:32:21;;;;;;;10.75;5.95;;;;;;;1.18;99.64;94133.03;2099006;28;20063;-62
2024/02/26 01:33:22;;;;;;;10.48;6.10;;;;;;;1.16;99.83;94136.53;2098917;28;20047;-62
2024/02/26 01:34:23;;;;;;;8.85;5.90;;;;;;;1.13;99.92;94136.66;2099439;28;20067;-62
2024/02/26 01:35:24;;;;;;;10.00;6.15;;;;;;;1.09;100.00;94131.66;2099433;28;20038;-62
2024/02/26 01:36:25;;;;;;;11.10;5.57;;;;;;;1.08;100.00;94130.00;2099464;28;20052;-62
2024/02/26 01:37:26;;;;;;;11.63;6.07;;;;;;;1.12;100.00;94134.97;2099464;28;20067;-62
2024/02/26 01:38:27;;;;;;;10.82;6.15;;;;;;;1.14;100.00;94128.91;2099356;28;20052;-62
2024/02/26 01:39:30;;;;;;;10.07;6.40;;;;;;;1.17;100.00;94128.78;2099364;28;20045;-62
2024/02/26 01:40:31;;;;;;;11.43;6.32;;;;;;;1.18;100.00;94127.09;2098185;28;20041;-63
2024/02/26 01:41:32;;;;;;;10.77;6.07;;;;;;;1.20;100.00;94117.59;2098648;28;20045;-62
2024/02/26 01:42:33;;;;;;;10.23;6.20;;;;;;;1.17;100.00;94118.56;2099502;28;20048;-62
2024/02/26 01:43:34;;;;;;;12.75;6.22;;;;;;;1.13;100.00;94117.03;2099123;28;20071;-62
2024/02/26 01:44:35;;;;;;;10.00;5.82;;;;;;;1.09;100.00;94126.53;2099919;28;20047;-65
2024/02/26 01:45:36;;;;;;;11.00;6.43;;;;;;;1.09;100.00;94123.16;2100719;28;20047;-64
2024/02/26 01:46:37;;;;;;;11.23;6.65;;;;;;;1.07;100.00;94119.84;2100229;28;20048;-68
2024/02/26 01:47:38;;;;;;;11.75;6.68;;;;;;;1.06;100.00;94120.72;2100537;28;20029;-65
2024/02/26 01:48:42;;;;;;;10.25;6.55;;;;;;;1.03;100.00;94121.69;2100683;28;20052;-68
2024/02/26 01:49:43;;;;;;;10.32;6.55;;;;;;;1.03;100.00;94119.13;2099659;28;20064;-66
2024/02/26 01:50:44;;;;;;;10.68;6.35;;;;;;;1.05;100.00;94108.84;2083384;28;20152;-68
2024/02/26 01:51:46;;;;;;;11.02;6.18;;;;;;;1.04;100.00;94113.13;2075203;28;20462;-63
2024/02/26 01:52:47;;;;;;;11.65;5.70;;;;;;;1.05;100.00;94106.28;2083762;28;20037;-63
2024/02/26 01:53:48;;;;;;;9.80;5.55;;;;;;;1.06;100.00;94110.50;2091584;28;20033;-64
2024/02/26 01:54:49;;;;;;;9.90;5.82;;;;;;;1.08;100.00;94111.28;2090446;28;20045;-62
2024/02/26 01:55:50;;;;;;;10.13;6.30;;;;;;;1.10;100.00;94104.38;2090631;28;20072;-69
2024/02/26 01:56:51;;;;;;;9.98;6.15;;;;;;;1.12;100.00;94105.13;2099024;28;20531;-66
2024/02/26 01:57:52;;;;;;;9.25;5.55;;;;;;;1.16;100.00;94105.84;2090452;28;20048;-62
2024/02/26 01:58:53;;;;;;;12.15;7.30;;;;;;;1.15;100.00;94102.47;2082388;28;20045;-62
2024/02/26 01:59:55;;;;;;;10.18;6.30;;;;;;;1.15;100.00;94099.06;2090775;28;20374;-63
2024/02/26 02:00:56;;;;;;;10.65;6.13;;;;;;;1.14;100.00;94105.06;2082547;28;20042;-66
2024/02/26 02:01:57;;;;;;;12.95;7.43;;;;;;;1.18;100.00;94106.63;2082199;28;20053;-62
2024/02/26 02:02:58;;;;;;;10.68;6.30;;;;;;;1.19;100.00;94103.16;2089731;28;20097;-62
2024/02/26 02:04:00;;;;;;;10.30;6.25;;;;;;;1.18;100.00;94102.34;2090379;28;20029;-62
2024/02/26 02:05:01;;;;;;;11.82;6.85;;;;;;;1.19;100.00;94105.72;2098427;28;20048;-62
2024/02/26 02:06:02;;;;;;;12.88;7.60;;;;;;;1.18;100.00;94104.91;2090543;28;20033;-62
2024/02/26 02:07:03;;;;;;;11.43;7.25;;;;;;;1.22;100.00;94105.59;2082236;28;20056;-62
2024/02/26 02:08:05;;;;;;;10.95;6.60;;;;;;;1.22;100.00;94108.16;2081912;28;20049;-62
2024/02/26 02:09:07;;;;;;;11.25;7.40;;;;;;;1.23;100.00;94097.88;2073944;28;20481;-62
2024/02/26 02:10:08;;;;;;;11.70;7.18;;;;;;;1.26;100.00;94099.47;2082401;28;20055;-62
2024/02/26 02:11:11;;;;;;;12.25;6.65;;;;;;;1.22;100.00;94096.19;2089846;28;20048;-63
2024/02/26 02:12:12;;;;;;;12.15;6.93;;;;;;;1.21;100.00;94093.72;2090574;28;20048;-61
2024/02/26 02:13:13;;;;;;;13.55;7.43;;;;;;;1.18;100.00;94089.56;2098515;28;20397;-62
2024/02/26 02:14:14;;;;;;;12.30;7.50;;;;;;;1.17;100.00;94093.00;2098610;28;20508;-62
2024/02/26 02:15:16;;;;;;;13.32;8.20;;;;;;;1.16;100.00;94087.97;2098499;28;20056;-61
2024/02/26 02:16:17;;;;;;;12.30;6.95;;;;;;;1.22;100.00;94093.63;2090113;28;20040;-62
2024/02/26 02:17:19;;;;;;;13.48;8.45;;;;;;;1.16;100.00;94091.34;2090175;28;20044;-62
2024/02/26 02:18:20;;;;;;;14.93;8.63;;;;;;;1.16;100.00;94103.28;2090120;28;20049;-62
2024/02/26 02:19:21;;;;;;;14.90;9.32;;;;;;;1.15;100.00;94097.34;2090368;28;20402;-62
2024/02/26 02:20:31;;;;;;;13.40;8.25;;;;;;;1.17;100.00;94097.28;2098621;28;20056;-62
2024/02/26 02:21:32;;;;;;;13.00;8.38;;;;;;;1.16;100.00;94098.19;2098820;28;20050;-62
2024/02/26 02:22:33;;;;;;;14.20;8.50;;;;;;;1.14;100.00;94108.47;2098557;28;20055;-62
2024/02/26 02:23:35;;;;;;;13.98;8.15;;;;;;;1.10;100.00;94100.09;2098283;28;20037;-62
2024/02/26 02:24:36;;;;;;;16.77;9.93;;;;;;;1.15;100.00;94107.59;2099287;28;20079;-62
2024/02/26 02:25:37;;;;;;;12.48;8.18;;;;;;;1.17;100.00;94108.31;2089380;28;20060;-62
2024/02/26 02:26:38;;;;;;;15.15;8.63;;;;;;;1.18;100.00;94111.75;2090625;28;20048;-63
2024/02/26 02:27:40;;;;;;;14.68;9.23;;;;;;;1.18;100.00;94107.47;2099639;28;20071;-66
2024/02/26 02:28:41;;;;;;;15.73;9.18;;;;;;;1.15;100.00;94107.59;2082671;28;20473;-66
2024/02/26 02:29:42;;;;;;;12.07;7.68;;;;;;;1.14;100.00;94105.91;2082093;28;20185;-62
2024/02/26 02:30:43;;;;;;;16.38;9.57;;;;;;;1.15;100.00;94099.91;2090711;28;20048;-63
2024/02/26 02:31:45;;;;;;;17.02;8.77;;;;;;;1.15;100.00;94101.63;2090558;28;20440;-62
2024/02/26 02:32:46;;;;;;;14.93;9.20;;;;;;;1.17;100.00;94097.28;2099058;28;20032;-62
2024/02/26 02:33:47;;;;;;;15.43;7.90;;;;;;;1.15;100.00;94099.06;2081933;28;20041;-62
2024/02/26 02:34:48;;;;;;;13.20;8.00;;;;;;;1.11;100.00;94093.25;2073635;28;20064;-62
2024/02/26 02:35:50;;;;;;;15.27;8.80;;;;;;;1.12;100.00;94099.19;2089833;28;20084;-62
2024/02/26 02:36:51;;;;;;;14.20;7.80;;;;;;;1.11;100.00;94088.13;2098274;28;20057;-62
2024/02/26 02:37:53;;;;;;;14.93;8.80;;;;;;;1.13;100.00;94085.53;2090207;28;20052;-62
2024/02/26 02:38:54;;;;;;;14.30;8.25;;;;;;;1.11;100.00;94088.13;2089633;28;20421;-62
2024/02/26 02:39:57;;;;;;;13.05;8.07;;;;;;;1.09;100.00;94080.50;2099093;28;20043;-63
2024/02/26 02:40:58;;;;;;;14.35;8.90;;;;;;;1.10;100.00;94089.03;2097772;28;20044;-62
2024/02/26 02:41:59;;;;;;;17.58;10.00;;;;;;;1.09;100.00;94089.91;2098815;28;20055;-62
2024/02/26 02:43:01;;;;;;;15.00;9.30;;;;;;;1.12;100.00;94092.34;2098690;28;20044;-62
2024/02/26 02:44:03;;;;;;;15.93;9.38;;;;;;;1.13;100.00;94094.03;2089920;28;20055;-62
2024/02/26 02:45:04;;;;;;;15.38;9.10;;;;;;;1.13;100.00;94088.09;2090027;28;20033;-62
2024/02/26 02:46:05;;;;;;;15.90;9.75;;;;;;;1.09;100.00;94080.50;2099181;28;20035;-62
2024/02/26 02:47:06;;;;;;;15.45;8.32;;;;;;;1.08;100.00;94086.53;2098117;28;20045;-62
2024/02/26 02:48:07;;;;;;;13.70;8.55;;;;;;;1.09;100.00;94087.34;2098555;28;20048;-62
2024/02/26 02:49:10;;;;;;;15.35;9.60;;;;;;;1.07;100.00;94087.44;2098536;28;20053;-62
2024/02/26 02:50:11;;;;;;;16.33;9.82;;;;;;;1.10;100.00;94077.09;2098814;28;20032;-62
2024/02/26 02:51:12;;;;;;;15.75;9.55;;;;;;;1.06;100.00;94083.19;2097989;28;20048;-63
2024/02/26 02:52:13;;;;;;;16.05;9.77;;;;;;;1.09;100.00;94082.25;2099053;28;20051;-62
2024/02/26 02:53:16;;;;;;;15.48;9.98;;;;;;;1.12;100.00;94082.13;2098505;28;20045;-62
2024/02/26 02:54:17;;;;;;;18.23;9.45;;;;;;;1.12;100.00;94077.00;2097885;28;20059;-62
2024/02/26 02:55:18;;;;;;;19.30;9.93;;;;;;;1.13;100.00;94082.97;2098022;28;20416;-62
2024/02/26 02:56:19;;;;;;;18.40;10.13;;;;;;;1.15;100.00;94083.72;2098108;28;20044;-62
2024/02/26 02:57:20;;;;;;;16.15;10.35;;;;;;;1.16;100.00;94085.41;2098186;28;20055;-62
2024/02/26 02:58:21;;;;;;;15.40;10.00;;;;;;;1.19;100.00;94085.28;2098299;28;20079;-62
2024/02/26 02:59:22;;;;;;;15.98;10.13;;;;;;;1.14;100.00;94082.88;2098067;28;20472;-62
2024/02/26 03:00:24;;;;;;;16.77;10.25;;;;;;;1.16;100.00;94093.06;2098907;28;20039;-62
2024/02/26 03:01:25;;;;;;;16.65;10.50;;;;;;;1.20;100.00;94086.91;2098740;28;20051;-62
2024/02/26 03:02:26;;;;;;;16.00;9.88;;;;;;;1.19;100.00;94092.94;2098756;28;20040;-62
2024/02/26 03:03:28;;;;;;;17.05;10.27;;;;;;;1.16;100.00;94087.97;2098411;28;20048;-62
2024/02/26 03:04:29;;;;;;;15.85;9.82;;;;;;;1.20;100.00;94092.03;2097829;28;20056;-62
2024/02/26 03:05:30;;;;;;;14.50;9.52;;;;;;;1.19;100.00;94088.66;2098622;28;20045;-62
2024/02/26 03:06:31;;;;;;;14.50;9.57;;;;;;;1.22;100.00;94082.59;2098395;28;20040;-62
2024/02/26 03:07:32;;;;;;;15.23;8.98;;;;;;;1.21;100.00;94083.50;2098921;28;20043;-62
2024/02/26 03:08:37;;;;;;;15.20;9.50;;;;;;;1.22;100.00;94085.13;2098317;28;20055;-62
2024/02/26 03:09:38;;;;;;;18.27;9.70;;;;;;;1.23;100.00;94086.78;2098242;28;20048;-62
2024/02/26 03:10:39;;;;;;;18.17;10.48;;;;;;;1.21;100.00;94089.44;2098403;28;20067;-62
2024/02/26 03:11:41;;;;;;;15.95;9.57;;;;;;;1.19;100.00;94083.53;2098562;28;20495;-62
2024/02/26 03:12:42;;;;;;;15.50;8.98;;;;;;;1.18;100.00;94097.22;2098020;28;20416;-62
2024/02/26 03:13:43;;;;;;;16.05;9.73;;;;;;;1.18;100.00;94088.72;2098366;28;20059;-62
2024/02/26 03:14:44;;;;;;;14.75;9.60;;;;;;;1.17;100.00;94085.31;2098233;28;20053;-62
2024/02/26 03:15:45;;;;;;;15.98;9.75;;;;;;;1.17;100.00;94095.53;2098650;28;20070;-62
2024/02/26 03:16:46;;;;;;;14.80;9.27;;;;;;;1.23;100.00;94089.34;2097868;28;20049;-62
2024/02/26 03:17:47;;;;;;;15.25;9.13;;;;;;;1.22;100.00;94087.69;2098542;28;20412;-62
2024/02/26 03:18:48;;;;;;;14.70;9.27;;;;;;;1.22;100.00;94085.97;2098069;28;20075;-62
2024/02/26 03:19:53;;;;;;;15.15;9.65;;;;;;;1.19;100.00;94093.75;2098126;28;20055;-62
2024/02/26 03:20:54;;;;;;;18.95;9.43;;;;;;;1.18;100.00;94091.28;2098433;28;20047;-62
2024/02/26 03:21:55;;;;;;;15.02;9.90;;;;;;;1.18;100.00;94084.44;2098011;28;20052;-63
2024/02/26 03:22:56;;;;;;;15.38;9.75;;;;;;;1.21;100.00;94093.72;2098720;28;20028;-62
2024/02/26 03:23:57;;;;;;;13.73;8.40;;;;;;;1.23;100.00;94091.91;2097979;28;20044;-62
2024/02/26 03:24:58;;;;;;;15.13;8.93;;;;;;;1.25;100.00;94090.13;2098625;28;20476;-62
2024/02/26 03:25:59;;;;;;;16.58;9.55;;;;;;;1.29;100.00;94094.22;2098287;28;20044;-62
2024/02/26 03:27:00;;;;;;;16.27;9.77;;;;;;;1.28;100.00;94090.84;2098776;28;20039;-62
2024/02/26 03:28:01;;;;;;;15.27;9.45;;;;;;;1.26;99.58;94086.69;2098281;28;20392;-62
2024/02/26 03:29:03;;;;;;;16.05;9.50;;;;;;;1.29;99.41;94089.13;2098613;28;20036;-62
2024/02/26 03:30:04;;;;;;;14.27;8.55;;;;;;;1.31;99.38;94095.00;2098448;28;20055;-63
2024/02/26 03:31:06;;;;;;;16.55;9.57;;;;;;;1.28;99.35;94090.84;2098152;28;20044;-62
2024/02/26 03:32:07;;;;;;;15.55;8.80;;;;;;;1.26;98.57;94084.13;2098504;28;20122;-62
2024/02/26 03:33:08;;;;;;;13.32;8.77;;;;;;;1.27;98.43;94096.84;2097842;28;20051;-62
2024/02/26 03:34:09;;;;;;;18.10;10.27;;;;;;;1.27;98.74;94088.34;2098134;28;20159;-62
2024/02/26 03:35:10;;;;;;;14.75;9.18;;;;;;;1.26;98.98;94086.69;2089209;28;20041;-62
2024/02/26 03:36:11;;;;;;;17.33;9.93;;;;;;;1.30;99.16;94085.66;2089410;28;20504;-63
2024/02/26 03:37:12;;;;;;;16.23;9.73;;;;;;;1.29;99.13;94084.81;2097922;28;20055;-62
2024/02/26 03:38:13;;;;;;;14.07;8.90;;;;;;;1.29;98.78;94084.81;2098195;28;20051;-62
2024/02/26 03:39:14;;;;;;;18.15;9.73;;;;;;;1.29;99.13;94091.66;2097844;28;20539;-62
2024/02/26 03:40:16;;;;;;;15.68;10.05;;;;;;;1.27;99.38;94088.34;2097783;28;20085;-62
2024/02/26 03:41:17;;;;;;;15.60;9.20;;;;;;;1.28;99.44;94090.84;2097915;28;20040;-62
2024/02/26 03:42:18;;;;;;;15.35;9.23;;;;;;;1.28;99.29;94088.28;2098379;28;20037;-62
2024/02/26 03:43:19;;;;;;;15.55;9.07;;;;;;;1.30;99.38;94083.91;2098653;28;20044;-62
2024/02/26 03:44:20;;;;;;;14.65;9.25;;;;;;;1.29;98.93;94091.66;2098558;28;20036;-62
2024/02/26 03:45:21;;;;;;;15.50;9.57;;;;;;;1.25;99.08;94090.94;2098579;28;20041;-62
2024/02/26 03:46:22;;;;;;;15.20;9.15;;;;;;;1.21;98.97;94084.31;2098378;28;20040;-62
2024/02/26 03:47:23;;;;;;;15.55;9.88;;;;;;;1.24;99.13;94086.75;2098214;28;20052;-62
2024/02/26 03:48:24;;;;;;;16.50;9.82;;;;;;;1.26;99.16;94094.34;2098691;28;20164;-62
2024/02/26 03:49:25;;;;;;;14.88;9.48;;;;;;;1.28;99.09;94090.84;2098494;28;20047;-63
2024/02/26 03:50:26;;;;;;;16.38;10.07;;;;;;;1.26;99.28;94092.63;2098545;28;20028;-64
2024/02/26 03:51:31;;;;;;;17.17;9.90;;;;;;;1.27;99.13;94094.28;2097604;28;20484;-62
2024/02/26 03:52:32;;;;;;;13.70;8.95;;;;;;;1.29;99.06;94094.22;2097716;28;20048;-62
2024/02/26 03:53:34;;;;;;;15.85;10.15;;;;;;;1.28;98.99;94090.00;2097852;28;20056;-62
2024/02/26 03:54:35;;;;;;;14.57;9.00;;;;;;;1.24;98.69;94089.28;2097706;28;20044;-62
2024/02/26 03:55:36;;;;;;;14.93;9.60;;;;;;;1.22;98.53;94085.13;2097877;28;20106;-62
2024/02/26 03:56:37;;;;;;;14.27;9.25;;;;;;;1.19;98.57;94085.28;2098321;28;20036;-61
2024/02/26 03:57:38;;;;;;;16.75;9.27;;;;;;;1.20;98.73;94092.03;2098260;28;20048;-62
2024/02/26 03:58:39;;;;;;;14.32;8.90;;;;;;;1.20;98.71;94086.91;2098130;28;20389;-62
2024/02/26 03:59:40;;;;;;;13.82;9.10;;;;;;;1.21;98.90;94083.50;2098588;28;20055;-62
2024/02/26 04:00:42;;;;;;;15.23;8.80;;;;;;;1.20;98.84;94087.75;2098477;28;20039;-62
2024/02/26 04:01:46;;;;;;;14.75;9.30;;;;;;;1.20;99.22;94081.81;2098453;28;20036;-62
2024/02/26 04:02:47;;;;;;;15.32;10.00;;;;;;;1.23;99.56;94082.53;2098346;28;20041;-62
2024/02/26 04:03:48;;;;;;;15.95;9.70;;;;;;;1.22;98.64;94085.97;2097711;28;20494;-62
2024/02/26 04:04:49;;;;;;;16.05;9.65;;;;;;;1.19;98.63;94093.75;2098324;28;20065;-62
2024/02/26 04:05:50;;;;;;;14.88;9.25;;;;;;;1.17;98.61;94092.16;2097958;28;20059;-62
2024/02/26 04:06:51;;;;;;;15.95;9.55;;;;;;;1.16;98.72;94086.22;2098077;28;20051;-62
2024/02/26 04:07:53;;;;;;;15.45;9.02;;;;;;;1.18;98.92;94088.72;2097321;28;20051;-62
2024/02/26 04:08:54;;;;;;;16.83;10.30;;;;;;;1.15;98.82;94089.69;2098297;28;20040;-62
2024/02/26 04:09:55;;;;;;;15.38;9.80;;;;;;;1.17;98.97;94094.72;2098572;28;20037;-62
2024/02/26 04:10:56;;;;;;;17.08;9.73;;;;;;;1.21;98.86;94083.50;2097373;28;20041;-62
2024/02/26 04:11:57;;;;;;;16.27;10.13;;;;;;;1.23;98.40;94086.78;2098374;28;20042;-62
2024/02/26 04:12:58;;;;;;;15.38;9.18;;;;;;;1.22;98.47;94083.41;2097735;28;20049;-62
2024/02/26 04:13:59;;;;;;;13.68;8.95;;;;;;;1.21;98.65;94089.44;2098247;28;20028;-62
2024/02/26 04:15:00;;;;;;;16.67;8.77;;;;;;;1.22;98.92;94087.69;2098131;28;20044;-62
2024/02/26 04:16:02;;;;;;;15.32;9.15;;;;;;;1.21;98.34;94084.31;2097529;28;20373;-62
2024/02/26 04:17:03;;;;;;;14.48;9.18;;;;;;;1.20;98.28;94081.81;2098388;28;20056;-62
2024/02/26 04:18:05;;;;;;;14.88;9.02;;;;;;;1.20;98.15;94094.59;2099910;28;20032;-62
2024/02/26 04:19:06;;;;;;;13.90;8.88;;;;;;;1.18;98.26;94092.13;2099989;28;20040;-62
2024/02/26 04:20:08;;;;;;;14.52;9.48;;;;;;;1.20;98.11;94086.91;2099942;28;20036;-62
2024/02/26 04:21:09;;;;;;;14.57;8.57;;;;;;;1.17;98.16;94093.00;2099596;28;20075;-62
2024/02/26 04:22:10;;;;;;;15.00;8.98;;;;;;;1.17;98.30;94090.44;2099973;28;20380;-62
2024/02/26 04:23:11;;;;;;;17.92;9.13;;;;;;;1.20;98.10;94089.47;2100333;28;20052;-63
2024/02/26 04:24:13;;;;;;;15.48;9.23;;;;;;;1.17;98.17;94090.44;2099534;28;20051;-62
2024/02/26 04:25:14;;;;;;;18.05;9.93;;;;;;;1.20;98.29;94092.84;2099723;28;20059;-62
2024/02/26 04:26:15;;;;;;;18.42;8.70;;;;;;;1.20;98.00;94092.03;2099009;28;20048;-62
2024/02/26 04:27:16;;;;;;;15.02;8.77;;;;;;;1.21;98.15;94098.81;2099255;28;20495;-62
2024/02/26 04:28:17;;;;;;;14.90;8.98;;;;;;;1.19;98.16;94096.31;2099616;28;20052;-62
2024/02/26 04:29:18;;;;;;;15.45;8.43;;;;;;;1.19;98.10;94088.66;2099683;28;20048;-62
2024/02/26 04:30:20;;;;;;;13.15;8.00;;;;;;;1.19;97.98;94103.16;2098968;28;20045;-62
2024/02/26 04:31:21;;;;;;;15.90;9.65;;;;;;;1.19;97.85;94105.72;2099554;28;20519;-63
2024/02/26 04:32:22;;;;;;;14.45;8.63;;;;;;;1.21;97.75;94109.88;2100036;28;20039;-62
2024/02/26 04:33:23;;;;;;;16.25;9.07;;;;;;;1.21;97.32;94103.94;2098973;28;20049;-62
2024/02/26 04:34:25;;;;;;;15.38;9.57;;;;;;;1.21;97.29;94106.50;2090596;28;20501;-62
2024/02/26 04:35:26;;;;;;;16.08;9.07;;;;;;;1.17;97.32;94108.31;2090045;28;20061;-62
2024/02/26 04:36:27;;;;;;;15.32;9.18;;;;;;;1.18;97.66;94109.19;2099995;28;20055;-62
2024/02/26 04:37:31;;;;;;;14.00;8.68;;;;;;;1.17;97.55;94115.16;2099807;28;20051;-62
2024/02/26 04:38:32;;;;;;;16.05;9.02;;;;;;;1.19;97.53;94114.22;2099871;28;20048;-62
2024/02/26 04:39:33;;;;;;;14.80;8.77;;;;;;;1.20;97.52;94118.44;2099584;28;20051;-62
2024/02/26 04:40:34;;;;;;;13.23;8.55;;;;;;;1.22;97.65;94120.94;2099494;28;20056;-62
2024/02/26 04:41:35;;;;;;;17.20;8.98;;;;;;;1.23;97.37;94120.03;2099435;28;20516;-62
2024/02/26 04:42:36;;;;;;;13.25;8.68;;;;;;;1.22;97.63;94124.31;2099086;28;20059;-63
2024/02/26 04:43:41;;;;;;;14.57;9.15;;;;;;;1.24;97.61;94122.53;2100074;28;20036;-62
2024/02/26 04:44:42;;;;;;;12.45;8.10;;;;;;;1.24;97.17;94116.59;2099768;28;20416;-62
2024/02/26 04:45:43;;;;;;;13.88;8.63;;;;;;;1.25;97.21;94116.50;2099738;28;20044;-62
2024/02/26 04:46:44;;;;;;;12.70;8.20;;;;;;;1.26;97.18;94112.25;2099233;28;20048;-62